Allen, South Dakota
Current Conditions -  °F | °C
As of 1:52 PM on Thursday 23 Oct 2014 (Local Time) from KIEN Reporting Station
Clear Clear  
Wind Chill: 21°   Ceiling: Unl
Heat Index: 21°   Visibility: 10mi
Dew Point:   Wind: 13mph
Humidity: 26%   Direction: 240°WSW
Pressure: 29.95"   Gusts: NA
Location:  43.28°N, 101.93°W
Report Text: KIEN 231952Z AUTO 24011KT 10SM CLR 21/01 A2995 RMK AO2 SLP139 T02060006
Loading
Personal Weather Stations






























Interactive Weather Map
Tropical Storm Tracking
New forecast layout! Learn more

10-Day Weather Forecast

Advertisements
Track Severe Weather on mobile